createdAt,value
2024-01-01T00:01:43.275Z,45.03
2024-01-01T00:09:16.798Z,53.00
2024-01-01T00:20:07.104Z,41.28
2024-01-01T00:23:41.521Z,42.13
2024-01-01T00:27:16.013Z,41.33
2024-01-01T00:30:50.682Z,40.25
2024-01-01T00:34:17.525Z,41.15
2024-01-01T00:40:52.989Z,37.83
2024-01-01T00:44:13.699Z,38.95
2024-01-01T00:47:49.512Z,38.38
2024-01-01T00:51:08.108Z,39.20
2024-01-01T00:54:43.708Z,42.20
2024-01-01T00:58:14.736Z,42.60
2024-01-01T01:01:48.642Z,41.83
2024-01-01T01:05:25.716Z,40.17
2024-01-01T01:09:00.526Z,36.65
2024-01-01T01:12:39.251Z,38.97
2024-01-01T01:16:19.043Z,38.33
2024-01-01T01:20:00.918Z,36.20
2024-01-01T01:23:29.680Z,35.30
2024-01-01T01:52:06.841Z,24.90
2024-01-01T01:55:39.100Z,20.70
2024-01-01T01:58:56.934Z,18.75
2024-01-01T02:06:46.673Z,20.10
2024-01-01T02:10:15.892Z,17.65
2024-01-01T02:14:07.899Z,16.20
2024-01-01T02:17:57.168Z,17.37
2024-01-01T02:21:44.920Z,18.10
2024-01-01T02:25:22.018Z,17.42
2024-01-01T02:32:57.018Z,16.67
2024-01-01T02:44:00.746Z,19.77
2024-01-01T02:50:55.691Z,19.20
2024-01-01T02:54:27.891Z,19.62
2024-01-01T02:58:04.936Z,19.15
2024-01-01T03:01:34.592Z,19.95
2024-01-01T03:04:57.978Z,18.55
2024-01-01T03:08:38.352Z,19.90
2024-01-01T03:12:00.877Z,17.87
2024-01-01T03:15:22.637Z,18.67
2024-01-01T03:19:04.510Z,19.08
2024-01-01T03:22:43.550Z,19.95
2024-01-01T03:26:19.116Z,20.30
2024-01-01T03:29:52.488Z,20.15
2024-01-01T03:33:22.466Z,21.48
2024-01-01T03:36:59.905Z,22.58
2024-01-01T03:40:18.214Z,23.05
2024-01-01T03:44:04.152Z,24.73
2024-01-01T03:47:40.561Z,25.92
2024-01-01T03:54:44.489Z,25.77
2024-01-01T03:58:13.765Z,25.48
2024-01-01T04:01:40.600Z,24.65
2024-01-01T04:05:18.496Z,24.35
2024-01-01T04:08:53.878Z,24.50
2024-01-01T04:12:16.892Z,25.33
2024-01-01T04:15:46.007Z,21.98
2024-01-01T04:19:06.496Z,22.00
2024-01-01T04:22:42.021Z,14.02
2024-01-01T04:26:21.529Z,11.48
2024-01-01T04:29:52.478Z,11.40
2024-01-01T04:33:11.328Z,10.50
2024-01-01T04:36:56.696Z,10.50
2024-01-01T04:40:23.600Z,10.25
2024-01-01T04:44:05.501Z,10.15
2024-01-01T04:47:25.281Z,10.35
2024-01-01T04:50:52.526Z,9.90
2024-01-01T04:54:29.263Z,10.98
2024-01-01T04:57:53.744Z,10.43
2024-01-01T05:01:28.612Z,10.57
2024-01-01T05:05:07.125Z,11.52
2024-01-01T05:08:38.561Z,11.90
2024-01-01T05:15:42.275Z,11.38
2024-01-01T05:19:22.165Z,11.65
2024-01-01T05:23:00.941Z,11.05
2024-01-01T05:26:19.221Z,11.55
2024-01-01T05:29:53.840Z,10.50
2024-01-01T05:33:30.771Z,11.98
2024-01-01T05:40:49.445Z,11.12
2024-01-01T05:44:25.632Z,11.07
2024-01-01T05:48:02.372Z,10.10
2024-01-01T05:51:42.757Z,11.95
2024-01-01T05:59:03.016Z,11.23
2024-01-01T06:02:41.324Z,11.10
2024-01-01T06:06:32.102Z,11.15
2024-01-01T06:10:12.068Z,10.38
2024-01-01T06:17:20.578Z,14.73
2024-01-01T06:20:52.948Z,12.07
2024-01-01T06:24:14.239Z,11.85
2024-01-01T06:28:02.489Z,12.57
2024-01-01T06:31:47.518Z,11.32
2024-01-01T06:35:30.812Z,10.77
2024-01-01T06:38:58.151Z,10.32
2024-01-01T06:42:39.735Z,11.52
2024-01-01T06:46:09.731Z,12.10
2024-01-01T06:49:44.937Z,10.98
2024-01-01T06:53:26.266Z,10.85
2024-01-01T06:57:07.090Z,11.15
2024-01-01T07:00:44.829Z,11.18
2024-01-01T07:04:12.397Z,11.25
2024-01-01T07:07:49.735Z,11.23
2024-01-01T07:11:26.060Z,11.35
2024-01-01T07:15:02.400Z,10.38
2024-01-01T07:18:36.202Z,10.68
2024-01-01T07:22:14.132Z,11.48
2024-01-01T07:25:47.665Z,10.98
2024-01-01T07:29:21.951Z,9.43
2024-01-01T07:33:02.129Z,10.25
2024-01-01T07:43:57.314Z,9.48
2024-01-01T07:47:22.868Z,9.70
2024-01-01T07:50:54.230Z,8.23
2024-01-01T07:54:32.060Z,7.95
2024-01-01T07:58:11.632Z,7.10
2024-01-01T08:01:53.550Z,6.68
2024-01-01T08:05:14.668Z,7.45
2024-01-01T08:09:05.754Z,5.97
2024-01-01T08:12:25.459Z,20.40
2024-01-01T08:16:05.324Z,7.20
2024-01-01T08:19:46.718Z,5.35
2024-01-01T08:23:36.764Z,4.82
2024-01-01T08:27:09.665Z,4.35
2024-01-01T08:30:51.903Z,4.68
2024-01-01T08:34:27.174Z,4.03
2024-01-01T08:37:46.402Z,3.95
2024-01-01T08:41:10.399Z,3.70
2024-01-01T08:44:35.290Z,3.50
2024-01-01T08:48:06.593Z,3.45
2024-01-01T08:51:37.451Z,2.53
2024-01-01T08:55:11.225Z,2.50
2024-01-01T09:02:17.857Z,1.95
2024-01-01T09:05:41.832Z,1.60
2024-01-01T09:09:17.085Z,1.65
2024-01-01T09:13:02.611Z,1.83
2024-01-01T09:16:38.581Z,1.77
2024-01-01T09:20:33.133Z,6.82
2024-01-01T09:24:11.744Z,1.40
2024-01-01T09:28:28.030Z,1.30
2024-01-01T09:32:05.103Z,1.15
2024-01-01T09:35:49.329Z,1.30
2024-01-01T09:39:29.823Z,1.20
2024-01-01T09:43:37.588Z,1.02
2024-01-01T09:47:18.660Z,2.42
2024-01-01T09:50:55.693Z,1.87
2024-01-01T09:54:28.510Z,1.13
2024-01-01T09:57:46.747Z,1.85
2024-01-01T10:01:23.614Z,1.67
2024-01-01T10:09:15.187Z,1.50
2024-01-01T10:12:54.066Z,1.05
2024-01-01T10:17:13.578Z,1.25
2024-01-01T10:20:45.484Z,1.67
2024-01-01T10:24:55.058Z,1.30
2024-01-01T10:28:31.998Z,1.33
2024-01-01T10:32:02.429Z,1.70
2024-01-01T10:35:53.910Z,1.50
2024-01-01T10:39:21.819Z,1.50
2024-01-01T10:43:45.025Z,1.40
2024-01-01T10:51:42.966Z,1.60
2024-01-01T10:55:53.266Z,1.50
2024-01-01T11:03:22.252Z,1.65
2024-01-01T11:06:32.655Z,1.77
2024-01-01T11:09:36.600Z,1.45
2024-01-01T11:12:40.509Z,2.22
2024-01-01T11:15:49.510Z,3.12
2024-01-01T11:18:53.972Z,2.83
2024-01-01T11:21:57.252Z,2.80
2024-01-01T11:25:08.409Z,1.85
2024-01-01T11:28:57.065Z,1.85
2024-01-01T11:32:05.653Z,2.00
2024-01-01T11:35:28.756Z,1.70
2024-01-01T11:38:34.806Z,2.05
2024-01-01T11:41:40.344Z,1.90
2024-01-01T11:44:44.004Z,2.20
2024-01-01T11:47:50.463Z,2.28
2024-01-01T11:51:14.332Z,2.20
2024-01-01T11:54:49.606Z,2.45
2024-01-01T11:57:55.759Z,2.50
2024-01-01T12:01:01.289Z,1.95
2024-01-01T12:04:08.197Z,2.12
2024-01-01T12:07:11.462Z,2.05
2024-01-01T12:10:19.390Z,2.10
2024-01-01T12:14:08.786Z,2.40
2024-01-01T12:21:45.595Z,2.20
2024-01-01T12:25:15.531Z,2.22
2024-01-01T12:28:42.669Z,2.10
2024-01-01T12:31:51.899Z,2.20
2024-01-01T12:35:30.740Z,2.40
2024-01-01T12:39:01.153Z,2.20
2024-01-01T12:42:06.155Z,2.42
2024-01-01T12:45:17.830Z,2.15
2024-01-01T12:48:21.721Z,2.62
2024-01-01T12:51:27.178Z,2.50
2024-01-01T12:54:34.086Z,2.35
2024-01-01T12:57:37.551Z,2.00
2024-01-01T13:00:40.782Z,2.42
2024-01-01T13:04:12.793Z,2.17
2024-01-01T13:07:16.320Z,2.22
2024-01-01T13:10:23.359Z,2.40
2024-01-01T13:14:00.655Z,2.85
2024-01-01T13:17:05.210Z,2.60
2024-01-01T13:20:44.317Z,2.35
2024-01-01T13:23:49.868Z,2.30
2024-01-01T13:27:21.527Z,2.25
2024-01-01T13:30:27.449Z,2.20
2024-01-01T13:33:34.154Z,2.40
2024-01-01T13:36:38.402Z,2.72
2024-01-01T13:40:15.394Z,2.40
2024-01-01T13:43:20.946Z,2.33
2024-01-01T13:46:24.553Z,2.55
2024-01-01T13:49:36.112Z,2.92
2024-01-01T13:52:46.712Z,2.65
2024-01-01T13:55:58.924Z,3.00
2024-01-01T13:59:03.930Z,2.83
2024-01-01T14:02:08.666Z,3.05
2024-01-01T14:05:12.760Z,3.03
2024-01-01T14:08:16.121Z,2.92
2024-01-01T14:11:49.826Z,3.42
2024-01-01T14:15:13.212Z,3.35
2024-01-01T14:18:17.000Z,2.62
2024-01-01T14:21:41.068Z,2.62
2024-01-01T14:24:45.121Z,3.90
2024-01-01T14:27:48.690Z,2.97
2024-01-01T14:31:22.277Z,2.80
2024-01-01T14:34:27.377Z,2.95
2024-01-01T14:38:03.217Z,2.90
2024-01-01T14:41:45.748Z,3.30
2024-01-01T14:49:23.472Z,2.70
2024-01-01T14:53:28.944Z,3.22
2024-01-01T14:56:33.752Z,3.08
2024-01-01T15:00:08.907Z,3.53
2024-01-01T15:03:39.833Z,3.28
2024-01-01T15:06:44.729Z,3.87
2024-01-01T15:10:21.774Z,3.83
2024-01-01T15:14:04.049Z,3.10
2024-01-01T15:21:55.378Z,3.12
2024-01-01T15:33:33.769Z,3.45
2024-01-01T15:37:12.050Z,4.03
2024-01-01T15:40:37.060Z,5.10
2024-01-01T15:43:41.980Z,5.70
2024-01-01T15:46:47.690Z,5.30
2024-01-01T15:50:13.156Z,5.37
2024-01-01T15:53:48.799Z,10.30
2024-01-01T15:57:33.183Z,8.95
2024-01-01T16:00:42.201Z,8.25
2024-01-01T16:04:26.020Z,7.15
2024-01-01T16:07:29.314Z,6.90
2024-01-01T16:10:33.764Z,5.85
2024-01-01T16:13:37.076Z,6.15
2024-01-01T16:16:42.336Z,6.53
2024-01-01T16:19:48.232Z,7.18
2024-01-01T16:22:55.267Z,7.78
2024-01-01T16:26:20.393Z,5.55
2024-01-01T16:29:25.999Z,4.55
2024-01-01T16:32:32.341Z,3.75
2024-01-01T16:35:40.310Z,5.15
2024-01-01T16:38:43.751Z,7.37
2024-01-01T16:41:51.175Z,7.40
2024-01-01T16:44:57.933Z,6.28
2024-01-01T16:48:21.415Z,6.10
2024-01-01T16:51:24.882Z,5.30
2024-01-01T16:54:30.718Z,5.50
2024-01-01T16:57:36.705Z,7.07
2024-01-01T17:00:43.161Z,7.75
2024-01-01T17:04:06.709Z,9.10
2024-01-01T17:07:13.158Z,9.45
2024-01-01T17:10:34.829Z,10.30
2024-01-01T17:13:43.324Z,10.25
2024-01-01T17:17:05.973Z,10.40
2024-01-01T17:20:11.537Z,9.90
2024-01-01T17:23:15.282Z,9.23
2024-01-01T17:26:21.127Z,9.02
2024-01-01T17:29:43.723Z,7.30
2024-01-01T17:32:48.331Z,7.25
2024-01-01T17:35:54.103Z,7.35
2024-01-01T17:39:05.318Z,7.12
2024-01-01T17:42:08.983Z,5.90
2024-01-01T17:45:12.683Z,6.50
2024-01-01T17:48:17.626Z,8.32
2024-01-01T17:51:24.605Z,9.57
2024-01-01T17:54:58.723Z,11.40
2024-01-01T17:58:04.373Z,13.85
2024-01-01T18:01:07.275Z,12.40
2024-01-01T18:04:15.257Z,12.95
2024-01-01T18:07:42.699Z,11.02
2024-01-01T18:11:08.190Z,9.38
2024-01-01T18:14:11.595Z,10.40
2024-01-01T18:17:20.840Z,8.50
2024-01-01T18:20:46.620Z,8.60
2024-01-01T18:23:51.011Z,14.65
2024-01-01T18:26:59.533Z,12.27
2024-01-01T18:30:41.669Z,9.80
2024-01-01T18:33:48.363Z,10.02
2024-01-01T18:36:52.018Z,9.90
2024-01-01T18:39:56.613Z,18.17
2024-01-01T18:43:03.221Z,10.43
2024-01-01T18:46:15.532Z,9.32
2024-01-01T18:49:23.214Z,9.75
2024-01-01T18:52:50.446Z,11.57
2024-01-01T18:55:54.041Z,12.80
2024-01-01T18:58:59.210Z,5.68
2024-01-01T19:02:07.042Z,6.57
2024-01-01T19:05:12.546Z,6.90
2024-01-01T19:08:16.470Z,6.22
2024-01-01T19:11:23.015Z,5.57
2024-01-01T19:14:31.127Z,4.47
2024-01-01T19:17:53.921Z,4.35
2024-01-01T19:20:57.714Z,4.07
2024-01-01T19:24:22.502Z,4.35
2024-01-01T19:27:29.067Z,4.22
2024-01-01T19:30:32.237Z,4.35
2024-01-01T19:33:35.442Z,4.55
2024-01-01T19:36:39.506Z,4.80
2024-01-01T19:39:43.048Z,4.60
2024-01-01T19:42:45.786Z,4.00
2024-01-01T19:46:18.680Z,4.70
2024-01-01T19:49:24.333Z,4.72
2024-01-01T19:52:38.043Z,5.12
2024-01-01T19:55:45.525Z,4.70
2024-01-01T19:58:48.764Z,4.97
2024-01-01T20:04:59.356Z,10.20
2024-01-01T20:08:02.843Z,7.70
2024-01-01T20:11:06.668Z,8.15
2024-01-01T20:14:29.827Z,7.40
2024-01-01T20:17:54.255Z,7.12
2024-01-01T20:20:57.002Z,6.90
2024-01-01T20:24:14.833Z,6.32
2024-01-01T20:30:26.009Z,4.47
2024-01-01T20:33:29.487Z,5.20
2024-01-01T20:36:34.100Z,4.43
2024-01-01T20:39:38.377Z,5.53
2024-01-01T20:42:49.745Z,5.70
2024-01-01T20:45:55.536Z,5.90
2024-01-01T20:49:02.147Z,6.53
2024-01-01T20:52:15.811Z,6.07
2024-01-01T20:55:26.808Z,6.62
2024-01-01T20:58:30.485Z,6.05
2024-01-01T21:01:34.374Z,7.50
2024-01-01T21:04:59.763Z,7.25
2024-01-01T21:08:06.158Z,6.53
2024-01-01T21:11:11.775Z,6.57
2024-01-01T21:14:15.482Z,7.72
2024-01-01T21:17:22.649Z,7.30
2024-01-01T21:20:25.822Z,7.05
2024-01-01T21:23:31.706Z,7.93
2024-01-01T21:26:34.944Z,7.05
2024-01-01T21:29:40.349Z,6.95
2024-01-01T21:33:04.152Z,6.97
2024-01-01T21:36:08.658Z,6.43
2024-01-01T21:39:16.292Z,7.30
2024-01-01T21:42:19.684Z,7.28
2024-01-01T21:45:28.754Z,6.55
2024-01-01T21:48:31.911Z,6.82
2024-01-01T21:51:37.515Z,6.93
2024-01-01T21:54:43.027Z,7.28
2024-01-01T21:57:46.459Z,7.60
2024-01-01T22:00:50.127Z,7.22
2024-01-01T22:03:55.613Z,7.35
2024-01-01T22:07:02.693Z,7.62
2024-01-01T22:10:06.739Z,7.57
2024-01-01T22:13:12.250Z,8.00
2024-01-01T22:19:39.351Z,6.50
2024-01-01T22:23:03.326Z,6.78
2024-01-01T22:26:12.249Z,7.70
2024-01-01T22:29:24.654Z,6.25
2024-01-01T22:33:04.440Z,6.60
2024-01-01T22:36:08.493Z,6.40
2024-01-01T22:39:32.323Z,7.00
2024-01-01T22:42:35.945Z,6.55
2024-01-01T22:45:41.531Z,7.05
2024-01-01T22:48:48.216Z,6.85
2024-01-01T22:51:53.342Z,6.72
2024-01-01T22:54:56.372Z,6.28
2024-01-01T22:58:02.415Z,6.47
2024-01-01T23:01:06.205Z,6.57
2024-01-01T23:04:12.467Z,6.45
2024-01-01T23:07:17.514Z,7.45
2024-01-01T23:10:28.530Z,8.50
2024-01-01T23:13:31.816Z,9.60
2024-01-01T23:16:35.258Z,9.95
2024-01-01T23:19:38.803Z,10.55
2024-01-01T23:22:42.481Z,9.98
2024-01-01T23:25:52.106Z,9.13
2024-01-01T23:28:59.681Z,10.18
2024-01-01T23:32:03.290Z,9.57
2024-01-01T23:35:08.511Z,10.45
2024-01-01T23:38:16.517Z,9.82
2024-01-01T23:41:19.701Z,9.05
2024-01-01T23:44:25.300Z,8.68
2024-01-01T23:47:51.406Z,8.63
2024-01-01T23:50:56.192Z,8.52
2024-01-01T23:54:02.656Z,7.93
2024-01-01T23:57:09.180Z,7.32
